sensor_id;sensor_type;location;lat;lon;timestamp;P1;durP1;ratioP1;P2;durP2;ratioP2
39454;SDS011;25155;41.890;23.446;2023-11-21T00:02:26;7.18;;;4.55;;
39454;SDS011;25155;41.890;23.446;2023-11-21T00:04:55;6.95;;;4.55;;
39454;SDS011;25155;41.890;23.446;2023-11-21T00:07:22;10.23;;;6.85;;
39454;SDS011;25155;41.890;23.446;2023-11-21T00:09:49;9.98;;;6.60;;
39454;SDS011;25155;41.890;23.446;2023-11-21T00:12:16;7.70;;;5.10;;
39454;SDS011;25155;41.890;23.446;2023-11-21T00:14:44;7.50;;;4.75;;
39454;SDS011;25155;41.890;23.446;2023-11-21T00:17:11;6.35;;;3.90;;
39454;SDS011;25155;41.890;23.446;2023-11-21T00:19:40;6.78;;;4.00;;
39454;SDS011;25155;41.890;23.446;2023-11-21T00:22:09;5.47;;;3.28;;
39454;SDS011;25155;41.890;23.446;2023-11-21T00:24:36;4.85;;;3.08;;
39454;SDS011;25155;41.890;23.446;2023-11-21T00:27:04;4.80;;;2.90;;
39454;SDS011;25155;41.890;23.446;2023-11-21T00:29:31;6.28;;;4.10;;
39454;SDS011;25155;41.890;23.446;2023-11-21T00:31:58;6.43;;;3.97;;
39454;SDS011;25155;41.890;23.446;2023-11-21T00:34:26;4.97;;;3.25;;
39454;SDS011;25155;41.890;23.446;2023-11-21T00:36:53;5.38;;;3.17;;
39454;SDS011;25155;41.890;23.446;2023-11-21T00:39:21;6.22;;;3.78;;
39454;SDS011;25155;41.890;23.446;2023-11-21T00:41:49;6.63;;;3.95;;
39454;SDS011;25155;41.890;23.446;2023-11-21T00:44:16;7.00;;;4.05;;
39454;SDS011;25155;41.890;23.446;2023-11-21T00:46:43;8.38;;;4.70;;
39454;SDS011;25155;41.890;23.446;2023-11-21T00:49:10;8.63;;;5.10;;
39454;SDS011;25155;41.890;23.446;2023-11-21T00:51:38;8.48;;;4.90;;
39454;SDS011;25155;41.890;23.446;2023-11-21T00:54:06;7.72;;;4.57;;
39454;SDS011;25155;41.890;23.446;2023-11-21T00:56:35;8.73;;;5.80;;
39454;SDS011;25155;41.890;23.446;2023-11-21T00:59:02;7.80;;;4.97;;
39454;SDS011;25155;41.890;23.446;2023-11-21T01:01:30;7.40;;;5.07;;
39454;SDS011;25155;41.890;23.446;2023-11-21T01:03:57;10.02;;;5.40;;
39454;SDS011;25155;41.890;23.446;2023-11-21T01:06:24;9.05;;;6.00;;
39454;SDS011;25155;41.890;23.446;2023-11-21T01:08:52;8.63;;;6.10;;
39454;SDS011;25155;41.890;23.446;2023-11-21T01:11:19;8.98;;;5.80;;
39454;SDS011;25155;41.890;23.446;2023-11-21T01:13:48;8.05;;;5.95;;
39454;SDS011;25155;41.890;23.446;2023-11-21T01:16:16;7.80;;;5.30;;
39454;SDS011;25155;41.890;23.446;2023-11-21T01:18:43;9.88;;;5.72;;
39454;SDS011;25155;41.890;23.446;2023-11-21T01:21:10;7.57;;;5.15;;
39454;SDS011;25155;41.890;23.446;2023-11-21T01:23:37;6.80;;;4.40;;
39454;SDS011;25155;41.890;23.446;2023-11-21T01:26:05;6.35;;;4.10;;
39454;SDS011;25155;41.890;23.446;2023-11-21T01:28:33;6.07;;;3.88;;
39454;SDS011;25155;41.890;23.446;2023-11-21T01:31:02;5.57;;;3.33;;
39454;SDS011;25155;41.890;23.446;2023-11-21T01:33:29;5.53;;;3.17;;
39454;SDS011;25155;41.890;23.446;2023-11-21T01:35:56;4.72;;;2.83;;
39454;SDS011;25155;41.890;23.446;2023-11-21T01:38:24;5.82;;;3.30;;
39454;SDS011;25155;41.890;23.446;2023-11-21T01:40:50;7.13;;;3.40;;
39454;SDS011;25155;41.890;23.446;2023-11-21T01:43:18;6.72;;;4.20;;
39454;SDS011;25155;41.890;23.446;2023-11-21T01:45:45;5.75;;;3.55;;
39454;SDS011;25155;41.890;23.446;2023-11-21T01:48:14;5.03;;;3.30;;
39454;SDS011;25155;41.890;23.446;2023-11-21T01:50:42;4.50;;;2.80;;
39454;SDS011;25155;41.890;23.446;2023-11-21T01:53:11;4.10;;;2.67;;
39454;SDS011;25155;41.890;23.446;2023-11-21T01:55:40;4.05;;;2.55;;
39454;SDS011;25155;41.890;23.446;2023-11-21T01:58:09;4.32;;;2.60;;
39454;SDS011;25155;41.890;23.446;2023-11-21T02:00:39;4.40;;;2.88;;
39454;SDS011;25155;41.890;23.446;2023-11-21T02:03:07;5.53;;;3.50;;
39454;SDS011;25155;41.890;23.446;2023-11-21T02:05:37;5.10;;;2.95;;
39454;SDS011;25155;41.890;23.446;2023-11-21T02:08:04;6.40;;;3.60;;
39454;SDS011;25155;41.890;23.446;2023-11-21T02:10:35;7.00;;;4.63;;
39454;SDS011;25155;41.890;23.446;2023-11-21T02:13:03;7.60;;;4.90;;
39454;SDS011;25155;41.890;23.446;2023-11-21T02:15:31;7.75;;;4.82;;
39454;SDS011;25155;41.890;23.446;2023-11-21T02:17:59;10.75;;;5.50;;
39454;SDS011;25155;41.890;23.446;2023-11-21T02:20:28;9.23;;;5.45;;
39454;SDS011;25155;41.890;23.446;2023-11-21T02:22:58;9.05;;;5.22;;
39454;SDS011;25155;41.890;23.446;2023-11-21T02:25:25;8.20;;;5.10;;
39454;SDS011;25155;41.890;23.446;2023-11-21T02:27:54;6.28;;;4.10;;
39454;SDS011;25155;41.890;23.446;2023-11-21T02:30:21;7.25;;;4.28;;
39454;SDS011;25155;41.890;23.446;2023-11-21T02:32:50;6.25;;;4.38;;
39454;SDS011;25155;41.890;23.446;2023-11-21T02:35:18;7.47;;;4.50;;
39454;SDS011;25155;41.890;23.446;2023-11-21T02:37:46;5.70;;;3.70;;
39454;SDS011;25155;41.890;23.446;2023-11-21T02:40:15;6.50;;;3.97;;
39454;SDS011;25155;41.890;23.446;2023-11-21T02:42:45;6.45;;;4.28;;
39454;SDS011;25155;41.890;23.446;2023-11-21T02:45:15;8.43;;;5.15;;
39454;SDS011;25155;41.890;23.446;2023-11-21T02:47:43;6.40;;;4.20;;
39454;SDS011;25155;41.890;23.446;2023-11-21T02:50:10;6.40;;;4.30;;
39454;SDS011;25155;41.890;23.446;2023-11-21T02:52:38;6.43;;;3.97;;
39454;SDS011;25155;41.890;23.446;2023-11-21T02:55:06;7.53;;;4.57;;
39454;SDS011;25155;41.890;23.446;2023-11-21T02:57:35;9.30;;;6.03;;
39454;SDS011;25155;41.890;23.446;2023-11-21T03:00:03;7.28;;;4.78;;
39454;SDS011;25155;41.890;23.446;2023-11-21T03:02:33;7.10;;;4.50;;
39454;SDS011;25155;41.890;23.446;2023-11-21T03:05:04;7.25;;;4.80;;
39454;SDS011;25155;41.890;23.446;2023-11-21T03:07:32;9.05;;;6.07;;
39454;SDS011;25155;41.890;23.446;2023-11-21T03:09:59;12.18;;;7.50;;
39454;SDS011;25155;41.890;23.446;2023-11-21T03:12:27;11.88;;;7.43;;
39454;SDS011;25155;41.890;23.446;2023-11-21T03:14:55;13.38;;;6.95;;
39454;SDS011;25155;41.890;23.446;2023-11-21T03:17:23;12.93;;;7.78;;
39454;SDS011;25155;41.890;23.446;2023-11-21T03:19:50;15.90;;;9.07;;
39454;SDS011;25155;41.890;23.446;2023-11-21T03:22:18;16.77;;;9.68;;
39454;SDS011;25155;41.890;23.446;2023-11-21T03:24:45;13.88;;;9.35;;
39454;SDS011;25155;41.890;23.446;2023-11-21T03:27:12;10.88;;;6.82;;
39454;SDS011;25155;41.890;23.446;2023-11-21T03:29:40;9.98;;;6.32;;
39454;SDS011;25155;41.890;23.446;2023-11-21T03:32:08;12.27;;;6.57;;
39454;SDS011;25155;41.890;23.446;2023-11-21T03:34:35;9.18;;;6.03;;
39454;SDS011;25155;41.890;23.446;2023-11-21T03:37:21;13.05;;;6.85;;
39454;SDS011;25155;41.890;23.446;2023-11-21T03:39:48;9.02;;;5.57;;
39454;SDS011;25155;41.890;23.446;2023-11-21T03:42:16;8.50;;;5.35;;
39454;SDS011;25155;41.890;23.446;2023-11-21T03:44:43;8.48;;;4.88;;
39454;SDS011;25155;41.890;23.446;2023-11-21T03:47:12;7.90;;;4.93;;
39454;SDS011;25155;41.890;23.446;2023-11-21T03:49:39;6.53;;;3.80;;
39454;SDS011;25155;41.890;23.446;2023-11-21T03:52:06;10.20;;;6.40;;
39454;SDS011;25155;41.890;23.446;2023-11-21T03:54:34;10.38;;;6.50;;
39454;SDS011;25155;41.890;23.446;2023-11-21T03:57:02;9.52;;;6.03;;
39454;SDS011;25155;41.890;23.446;2023-11-21T03:59:29;11.88;;;6.60;;
39454;SDS011;25155;41.890;23.446;2023-11-21T04:01:57;14.02;;;8.35;;
39454;SDS011;25155;41.890;23.446;2023-11-21T04:04:25;10.60;;;7.13;;
39454;SDS011;25155;41.890;23.446;2023-11-21T04:06:53;9.90;;;6.45;;
39454;SDS011;25155;41.890;23.446;2023-11-21T04:09:20;8.13;;;5.78;;
39454;SDS011;25155;41.890;23.446;2023-11-21T04:11:50;12.10;;;7.00;;
39454;SDS011;25155;41.890;23.446;2023-11-21T04:14:17;10.32;;;6.65;;
39454;SDS011;25155;41.890;23.446;2023-11-21T04:16:45;10.60;;;6.18;;
39454;SDS011;25155;41.890;23.446;2023-11-21T04:19:12;9.38;;;6.05;;
39454;SDS011;25155;41.890;23.446;2023-11-21T04:21:42;10.48;;;5.78;;
39454;SDS011;25155;41.890;23.446;2023-11-21T04:24:10;15.43;;;9.65;;
39454;SDS011;25155;41.890;23.446;2023-11-21T04:26:37;12.13;;;7.90;;
39454;SDS011;25155;41.890;23.446;2023-11-21T04:29:04;10.52;;;6.70;;
39454;SDS011;25155;41.890;23.446;2023-11-21T04:31:31;9.55;;;6.43;;
39454;SDS011;25155;41.890;23.446;2023-11-21T04:33:58;8.55;;;5.35;;
39454;SDS011;25155;41.890;23.446;2023-11-21T04:36:26;8.30;;;5.18;;
39454;SDS011;25155;41.890;23.446;2023-11-21T04:38:57;9.32;;;4.97;;
39454;SDS011;25155;41.890;23.446;2023-11-21T04:41:24;9.35;;;5.57;;
39454;SDS011;25155;41.890;23.446;2023-11-21T04:43:52;10.63;;;6.80;;
39454;SDS011;25155;41.890;23.446;2023-11-21T04:46:19;9.88;;;5.47;;
39454;SDS011;25155;41.890;23.446;2023-11-21T04:48:47;8.13;;;5.50;;
39454;SDS011;25155;41.890;23.446;2023-11-21T04:51:14;10.02;;;5.75;;
39454;SDS011;25155;41.890;23.446;2023-11-21T04:53:41;7.40;;;4.60;;
39454;SDS011;25155;41.890;23.446;2023-11-21T04:56:10;6.25;;;4.28;;
39454;SDS011;25155;41.890;23.446;2023-11-21T04:58:37;9.43;;;5.45;;
39454;SDS011;25155;41.890;23.446;2023-11-21T05:01:06;6.93;;;4.80;;
39454;SDS011;25155;41.890;23.446;2023-11-21T05:03:34;7.90;;;5.35;;
39454;SDS011;25155;41.890;23.446;2023-11-21T05:06:04;8.57;;;5.45;;
39454;SDS011;25155;41.890;23.446;2023-11-21T05:08:31;7.00;;;4.28;;
39454;SDS011;25155;41.890;23.446;2023-11-21T05:10:59;6.80;;;4.00;;
39454;SDS011;25155;41.890;23.446;2023-11-21T05:13:27;7.95;;;4.28;;
39454;SDS011;25155;41.890;23.446;2023-11-21T05:15:54;7.05;;;4.18;;
39454;SDS011;25155;41.890;23.446;2023-11-21T05:18:22;8.48;;;4.63;;
39454;SDS011;25155;41.890;23.446;2023-11-21T05:20:52;6.68;;;4.03;;
39454;SDS011;25155;41.890;23.446;2023-11-21T05:23:20;7.60;;;4.40;;
39454;SDS011;25155;41.890;23.446;2023-11-21T05:25:47;6.45;;;4.10;;
39454;SDS011;25155;41.890;23.446;2023-11-21T05:28:15;5.88;;;3.85;;
39454;SDS011;25155;41.890;23.446;2023-11-21T05:30:43;6.07;;;3.78;;
39454;SDS011;25155;41.890;23.446;2023-11-21T05:33:11;5.72;;;3.67;;
39454;SDS011;25155;41.890;23.446;2023-11-21T05:35:38;5.93;;;3.90;;
39454;SDS011;25155;41.890;23.446;2023-11-21T05:38:06;6.75;;;4.22;;
39454;SDS011;25155;41.890;23.446;2023-11-21T05:40:33;9.10;;;5.43;;
39454;SDS011;25155;41.890;23.446;2023-11-21T05:43:02;10.40;;;5.85;;
39454;SDS011;25155;41.890;23.446;2023-11-21T05:45:30;12.50;;;7.30;;
39454;SDS011;25155;41.890;23.446;2023-11-21T05:47:59;11.45;;;7.35;;
39454;SDS011;25155;41.890;23.446;2023-11-21T05:50:26;17.67;;;11.07;;
39454;SDS011;25155;41.890;23.446;2023-11-21T05:52:53;17.77;;;10.80;;
39454;SDS011;25155;41.890;23.446;2023-11-21T05:55:22;26.88;;;15.80;;
39454;SDS011;25155;41.890;23.446;2023-11-21T05:57:51;23.90;;;15.55;;
39454;SDS011;25155;41.890;23.446;2023-11-21T06:00:18;27.13;;;16.05;;
39454;SDS011;25155;41.890;23.446;2023-11-21T06:02:47;25.92;;;16.88;;
39454;SDS011;25155;41.890;23.446;2023-11-21T06:05:17;27.27;;;17.80;;
39454;SDS011;25155;41.890;23.446;2023-11-21T06:07:45;52.88;;;33.35;;
39454;SDS011;25155;41.890;23.446;2023-11-21T06:10:12;73.05;;;44.80;;
39454;SDS011;25155;41.890;23.446;2023-11-21T06:12:39;58.58;;;37.17;;
39454;SDS011;25155;41.890;23.446;2023-11-21T06:15:08;79.65;;;48.55;;
39454;SDS011;25155;41.890;23.446;2023-11-21T06:17:39;61.10;;;38.50;;
39454;SDS011;25155;41.890;23.446;2023-11-21T06:20:07;52.03;;;34.00;;
39454;SDS011;25155;41.890;23.446;2023-11-21T06:22:38;50.33;;;33.20;;
39454;SDS011;25155;41.890;23.446;2023-11-21T06:25:07;48.78;;;32.15;;
39454;SDS011;25155;41.890;23.446;2023-11-21T06:27:37;45.65;;;30.90;;
39454;SDS011;25155;41.890;23.446;2023-11-21T06:30:06;62.60;;;39.92;;
39454;SDS011;25155;41.890;23.446;2023-11-21T06:32:35;80.30;;;52.75;;
39454;SDS011;25155;41.890;23.446;2023-11-21T06:35:02;103.40;;;67.53;;
39454;SDS011;25155;41.890;23.446;2023-11-21T06:37:31;96.05;;;60.85;;
39454;SDS011;25155;41.890;23.446;2023-11-21T06:40:00;75.05;;;48.92;;
39454;SDS011;25155;41.890;23.446;2023-11-21T06:42:29;61.95;;;41.30;;
39454;SDS011;25155;41.890;23.446;2023-11-21T06:44:57;54.92;;;35.35;;
39454;SDS011;25155;41.890;23.446;2023-11-21T06:47:25;49.72;;;33.42;;
39454;SDS011;25155;41.890;23.446;2023-11-21T06:49:55;47.65;;;32.53;;
39454;SDS011;25155;41.890;23.446;2023-11-21T06:52:22;43.25;;;28.40;;
39454;SDS011;25155;41.890;23.446;2023-11-21T06:54:49;38.78;;;27.10;;
39454;SDS011;25155;41.890;23.446;2023-11-21T06:57:18;44.90;;;27.80;;
39454;SDS011;25155;41.890;23.446;2023-11-21T06:59:46;38.83;;;26.55;;
39454;SDS011;25155;41.890;23.446;2023-11-21T07:02:13;36.72;;;23.67;;
39454;SDS011;25155;41.890;23.446;2023-11-21T07:04:43;40.72;;;27.65;;
39454;SDS011;25155;41.890;23.446;2023-11-21T07:07:10;40.60;;;26.33;;
39454;SDS011;25155;41.890;23.446;2023-11-21T07:09:37;39.90;;;26.42;;
39454;SDS011;25155;41.890;23.446;2023-11-21T07:12:05;42.08;;;26.88;;
39454;SDS011;25155;41.890;23.446;2023-11-21T07:14:34;92.85;;;58.83;;
39454;SDS011;25155;41.890;23.446;2023-11-21T07:17:02;79.88;;;50.47;;
39454;SDS011;25155;41.890;23.446;2023-11-21T07:19:29;70.95;;;47.20;;
39454;SDS011;25155;41.890;23.446;2023-11-21T07:21:57;60.78;;;40.30;;
39454;SDS011;25155;41.890;23.446;2023-11-21T07:24:24;55.67;;;38.65;;
39454;SDS011;25155;41.890;23.446;2023-11-21T07:26:51;55.38;;;35.38;;
39454;SDS011;25155;41.890;23.446;2023-11-21T07:29:23;56.65;;;35.33;;
39454;SDS011;25155;41.890;23.446;2023-11-21T07:31:53;67.85;;;43.75;;
39454;SDS011;25155;41.890;23.446;2023-11-21T07:34:20;57.13;;;38.17;;
39454;SDS011;25155;41.890;23.446;2023-11-21T07:36:47;52.70;;;35.63;;
39454;SDS011;25155;41.890;23.446;2023-11-21T07:39:15;35.25;;;24.80;;
39454;SDS011;25155;41.890;23.446;2023-11-21T07:41:43;27.63;;;18.90;;
39454;SDS011;25155;41.890;23.446;2023-11-21T07:44:14;38.45;;;27.88;;
39454;SDS011;25155;41.890;23.446;2023-11-21T07:46:42;59.67;;;40.65;;
39454;SDS011;25155;41.890;23.446;2023-11-21T07:49:11;64.97;;;40.70;;
39454;SDS011;25155;41.890;23.446;2023-11-21T07:51:41;65.70;;;44.25;;
39454;SDS011;25155;41.890;23.446;2023-11-21T07:54:09;86.32;;;56.72;;
39454;SDS011;25155;41.890;23.446;2023-11-21T07:56:36;72.85;;;49.83;;
39454;SDS011;25155;41.890;23.446;2023-11-21T07:59:03;59.72;;;39.40;;
39454;SDS011;25155;41.890;23.446;2023-11-21T08:01:31;80.63;;;54.05;;
39454;SDS011;25155;41.890;23.446;2023-11-21T08:03:58;47.72;;;32.60;;
39454;SDS011;25155;41.890;23.446;2023-11-21T08:06:30;42.00;;;27.95;;
39454;SDS011;25155;41.890;23.446;2023-11-21T08:08:58;55.72;;;37.63;;
39454;SDS011;25155;41.890;23.446;2023-11-21T08:11:25;64.43;;;43.90;;
39454;SDS011;25155;41.890;23.446;2023-11-21T08:13:54;68.28;;;45.03;;
39454;SDS011;25155;41.890;23.446;2023-11-21T08:16:22;55.92;;;39.45;;
39454;SDS011;25155;41.890;23.446;2023-11-21T08:18:49;47.72;;;33.15;;
39454;SDS011;25155;41.890;23.446;2023-11-21T08:21:16;78.43;;;51.80;;
39454;SDS011;25155;41.890;23.446;2023-11-21T08:23:45;58.33;;;39.50;;
39454;SDS011;25155;41.890;23.446;2023-11-21T08:26:18;62.45;;;42.20;;
39454;SDS011;25155;41.890;23.446;2023-11-21T08:28:45;56.92;;;36.55;;
39454;SDS011;25155;41.890;23.446;2023-11-21T08:31:13;58.10;;;38.63;;
39454;SDS011;25155;41.890;23.446;2023-11-21T08:33:41;55.28;;;36.35;;
39454;SDS011;25155;41.890;23.446;2023-11-21T08:36:08;51.70;;;33.65;;
39454;SDS011;25155;41.890;23.446;2023-11-21T08:38:37;63.20;;;42.90;;
39454;SDS011;25155;41.890;23.446;2023-11-21T08:41:06;66.82;;;44.97;;
39454;SDS011;25155;41.890;23.446;2023-11-21T08:43:34;57.30;;;40.58;;
39454;SDS011;25155;41.890;23.446;2023-11-21T08:46:05;53.92;;;34.97;;
39454;SDS011;25155;41.890;23.446;2023-11-21T08:48:34;52.45;;;35.35;;
39454;SDS011;25155;41.890;23.446;2023-11-21T08:51:02;41.45;;;29.08;;
39454;SDS011;25155;41.890;23.446;2023-11-21T08:53:30;43.30;;;31.50;;
39454;SDS011;25155;41.890;23.446;2023-11-21T08:55:58;47.22;;;32.08;;
39454;SDS011;25155;41.890;23.446;2023-11-21T08:58:27;44.72;;;29.65;;
39454;SDS011;25155;41.890;23.446;2023-11-21T09:00:54;35.08;;;24.55;;
39454;SDS011;25155;41.890;23.446;2023-11-21T09:03:21;27.95;;;19.90;;
39454;SDS011;25155;41.890;23.446;2023-11-21T09:05:48;28.20;;;20.63;;
39454;SDS011;25155;41.890;23.446;2023-11-21T09:08:15;32.20;;;23.05;;
39454;SDS011;25155;41.890;23.446;2023-11-21T09:10:43;36.58;;;24.75;;
39454;SDS011;25155;41.890;23.446;2023-11-21T09:13:12;33.75;;;23.88;;
39454;SDS011;25155;41.890;23.446;2023-11-21T09:15:43;33.78;;;23.20;;
39454;SDS011;25155;41.890;23.446;2023-11-21T09:18:12;36.17;;;26.08;;
39454;SDS011;25155;41.890;23.446;2023-11-21T09:20:40;49.25;;;33.80;;
39454;SDS011;25155;41.890;23.446;2023-11-21T09:23:08;45.95;;;31.08;;
39454;SDS011;25155;41.890;23.446;2023-11-21T09:25:35;40.53;;;29.35;;
39454;SDS011;25155;41.890;23.446;2023-11-21T09:28:03;50.20;;;34.70;;
39454;SDS011;25155;41.890;23.446;2023-11-21T09:30:33;51.80;;;35.50;;
39454;SDS011;25155;41.890;23.446;2023-11-21T09:33:02;53.17;;;36.55;;
39454;SDS011;25155;41.890;23.446;2023-11-21T09:35:33;52.90;;;38.13;;
39454;SDS011;25155;41.890;23.446;2023-11-21T09:38:00;44.13;;;30.85;;
39454;SDS011;25155;41.890;23.446;2023-11-21T09:40:31;30.60;;;19.90;;
39454;SDS011;25155;41.890;23.446;2023-11-21T09:42:58;22.90;;;15.82;;
39454;SDS011;25155;41.890;23.446;2023-11-21T09:45:26;27.00;;;18.00;;
39454;SDS011;25155;41.890;23.446;2023-11-21T09:47:54;23.73;;;17.05;;
39454;SDS011;25155;41.890;23.446;2023-11-21T09:50:24;21.65;;;15.13;;
39454;SDS011;25155;41.890;23.446;2023-11-21T09:52:55;24.80;;;17.08;;
39454;SDS011;25155;41.890;23.446;2023-11-21T09:55:26;21.20;;;15.13;;
39454;SDS011;25155;41.890;23.446;2023-11-21T09:57:56;22.08;;;14.85;;
39454;SDS011;25155;41.890;23.446;2023-11-21T10:00:23;19.73;;;14.73;;
39454;SDS011;25155;41.890;23.446;2023-11-21T10:02:52;19.10;;;13.52;;
39454;SDS011;25155;41.890;23.446;2023-11-21T10:05:20;16.25;;;12.05;;
39454;SDS011;25155;41.890;23.446;2023-11-21T10:07:49;17.13;;;12.05;;
39454;SDS011;25155;41.890;23.446;2023-11-21T10:10:18;17.33;;;12.82;;
39454;SDS011;25155;41.890;23.446;2023-11-21T10:12:48;19.85;;;14.63;;
39454;SDS011;25155;41.890;23.446;2023-11-21T10:15:20;23.05;;;15.98;;
39454;SDS011;25155;41.890;23.446;2023-11-21T10:17:48;21.65;;;13.80;;
39454;SDS011;25155;41.890;23.446;2023-11-21T10:20:18;17.50;;;11.95;;
39454;SDS011;25155;41.890;23.446;2023-11-21T10:22:46;19.63;;;13.02;;
39454;SDS011;25155;41.890;23.446;2023-11-21T10:25:15;18.05;;;10.90;;
39454;SDS011;25155;41.890;23.446;2023-11-21T10:27:44;16.95;;;10.70;;
39454;SDS011;25155;41.890;23.446;2023-11-21T10:30:16;19.48;;;12.43;;
39454;SDS011;25155;41.890;23.446;2023-11-21T10:32:44;32.15;;;21.27;;
39454;SDS011;25155;41.890;23.446;2023-11-21T10:35:11;37.75;;;25.85;;
39454;SDS011;25155;41.890;23.446;2023-11-21T10:37:39;39.25;;;26.90;;
39454;SDS011;25155;41.890;23.446;2023-11-21T10:40:07;32.28;;;22.90;;
39454;SDS011;25155;41.890;23.446;2023-11-21T10:42:38;30.35;;;20.05;;
39454;SDS011;25155;41.890;23.446;2023-11-21T10:45:07;26.02;;;18.20;;
39454;SDS011;25155;41.890;23.446;2023-11-21T10:47:38;31.67;;;21.35;;
39454;SDS011;25155;41.890;23.446;2023-11-21T10:50:07;25.88;;;18.10;;
39454;SDS011;25155;41.890;23.446;2023-11-21T10:52:36;25.85;;;17.73;;
39454;SDS011;25155;41.890;23.446;2023-11-21T10:55:16;22.48;;;14.68;;
39454;SDS011;25155;41.890;23.446;2023-11-21T10:57:47;16.10;;;11.25;;
39454;SDS011;25155;41.890;23.446;2023-11-21T11:00:16;20.92;;;13.88;;
39454;SDS011;25155;41.890;23.446;2023-11-21T11:02:48;17.67;;;12.25;;
39454;SDS011;25155;41.890;23.446;2023-11-21T11:05:20;11.55;;;8.68;;
39454;SDS011;25155;41.890;23.446;2023-11-21T11:07:50;12.65;;;8.32;;
39454;SDS011;25155;41.890;23.446;2023-11-21T11:10:20;14.00;;;9.40;;
39454;SDS011;25155;41.890;23.446;2023-11-21T11:12:53;11.40;;;7.93;;
39454;SDS011;25155;41.890;23.446;2023-11-21T11:15:20;14.63;;;9.63;;
39454;SDS011;25155;41.890;23.446;2023-11-21T11:17:48;13.40;;;8.32;;
39454;SDS011;25155;41.890;23.446;2023-11-21T11:20:15;9.63;;;6.78;;
39454;SDS011;25155;41.890;23.446;2023-11-21T11:22:48;17.67;;;13.07;;
39454;SDS011;25155;41.890;23.446;2023-11-21T11:25:33;19.35;;;13.05;;
39454;SDS011;25155;41.890;23.446;2023-11-21T11:28:17;15.68;;;10.40;;
39454;SDS011;25155;41.890;23.446;2023-11-21T11:30:56;14.35;;;9.88;;
39454;SDS011;25155;41.890;23.446;2023-11-21T11:33:34;19.02;;;12.43;;
39454;SDS011;25155;41.890;23.446;2023-11-21T11:36:08;16.27;;;10.85;;
39454;SDS011;25155;41.890;23.446;2023-11-21T11:38:45;16.00;;;10.15;;
39454;SDS011;25155;41.890;23.446;2023-11-21T11:41:15;11.00;;;7.70;;
39454;SDS011;25155;41.890;23.446;2023-11-21T11:43:54;9.45;;;6.32;;
39454;SDS011;25155;41.890;23.446;2023-11-21T11:46:23;10.00;;;6.65;;
39454;SDS011;25155;41.890;23.446;2023-11-21T11:49:09;11.00;;;6.75;;
39454;SDS011;25155;41.890;23.446;2023-11-21T11:51:36;9.45;;;6.53;;
39454;SDS011;25155;41.890;23.446;2023-11-21T11:54:04;9.93;;;6.60;;
39454;SDS011;25155;41.890;23.446;2023-11-21T11:56:33;9.18;;;6.00;;
39454;SDS011;25155;41.890;23.446;2023-11-21T11:59:04;10.98;;;7.35;;
39454;SDS011;25155;41.890;23.446;2023-11-21T12:07:00;14.25;;;9.18;;
39454;SDS011;25155;41.890;23.446;2023-11-21T12:09:30;11.98;;;8.57;;
39454;SDS011;25155;41.890;23.446;2023-11-21T12:11:58;8.95;;;6.28;;
39454;SDS011;25155;41.890;23.446;2023-11-21T12:14:28;5.90;;;3.95;;
39454;SDS011;25155;41.890;23.446;2023-11-21T12:16:55;5.40;;;3.63;;
39454;SDS011;25155;41.890;23.446;2023-11-21T12:19:22;7.22;;;4.70;;
39454;SDS011;25155;41.890;23.446;2023-11-21T12:21:49;12.07;;;7.07;;
39454;SDS011;25155;41.890;23.446;2023-11-21T12:24:17;11.65;;;7.45;;
39454;SDS011;25155;41.890;23.446;2023-11-21T12:26:44;8.70;;;6.05;;
39454;SDS011;25155;41.890;23.446;2023-11-21T12:29:12;14.57;;;9.82;;
39454;SDS011;25155;41.890;23.446;2023-11-21T12:31:40;12.85;;;9.32;;
39454;SDS011;25155;41.890;23.446;2023-11-21T12:34:08;14.93;;;10.07;;
39454;SDS011;25155;41.890;23.446;2023-11-21T12:36:37;14.70;;;9.63;;
39454;SDS011;25155;41.890;23.446;2023-11-21T12:39:05;15.70;;;11.10;;
39454;SDS011;25155;41.890;23.446;2023-11-21T12:41:34;16.48;;;11.43;;
39454;SDS011;25155;41.890;23.446;2023-11-21T12:44:01;18.38;;;12.20;;
39454;SDS011;25155;41.890;23.446;2023-11-21T12:46:29;17.65;;;11.43;;
39454;SDS011;25155;41.890;23.446;2023-11-21T12:49:00;16.50;;;11.40;;
39454;SDS011;25155;41.890;23.446;2023-11-21T12:51:27;13.20;;;9.20;;
39454;SDS011;25155;41.890;23.446;2023-11-21T12:53:55;11.48;;;7.82;;
39454;SDS011;25155;41.890;23.446;2023-11-21T12:56:23;12.82;;;8.65;;
39454;SDS011;25155;41.890;23.446;2023-11-21T12:58:53;20.42;;;12.02;;
39454;SDS011;25155;41.890;23.446;2023-11-21T13:01:25;14.48;;;9.73;;
39454;SDS011;25155;41.890;23.446;2023-11-21T13:03:56;15.82;;;10.80;;
39454;SDS011;25155;41.890;23.446;2023-11-21T13:06:26;14.48;;;9.35;;
39454;SDS011;25155;41.890;23.446;2023-11-21T13:08:58;13.32;;;8.88;;
39454;SDS011;25155;41.890;23.446;2023-11-21T13:11:25;11.23;;;8.00;;
39454;SDS011;25155;41.890;23.446;2023-11-21T13:13:57;11.25;;;7.50;;
39454;SDS011;25155;41.890;23.446;2023-11-21T13:16:26;10.50;;;6.70;;
39454;SDS011;25155;41.890;23.446;2023-11-21T13:18:53;7.57;;;4.85;;
39454;SDS011;25155;41.890;23.446;2023-11-21T13:21:20;7.82;;;5.13;;
39454;SDS011;25155;41.890;23.446;2023-11-21T13:23:49;7.82;;;5.10;;
39454;SDS011;25155;41.890;23.446;2023-11-21T13:26:18;6.17;;;3.87;;
39454;SDS011;25155;41.890;23.446;2023-11-21T13:28:47;5.70;;;3.92;;
39454;SDS011;25155;41.890;23.446;2023-11-21T13:31:15;8.57;;;5.60;;
39454;SDS011;25155;41.890;23.446;2023-11-21T13:33:52;11.50;;;6.72;;
39454;SDS011;25155;41.890;23.446;2023-11-21T13:36:24;8.20;;;5.05;;
39454;SDS011;25155;41.890;23.446;2023-11-21T13:41:24;6.97;;;4.43;;
39454;SDS011;25155;41.890;23.446;2023-11-21T13:46:31;7.32;;;4.93;;
39454;SDS011;25155;41.890;23.446;2023-11-21T13:49:02;7.07;;;4.20;;
39454;SDS011;25155;41.890;23.446;2023-11-21T13:51:35;6.82;;;4.50;;
39454;SDS011;25155;41.890;23.446;2023-11-21T13:54:07;8.07;;;5.40;;
39454;SDS011;25155;41.890;23.446;2023-11-21T13:56:35;8.48;;;5.47;;
39454;SDS011;25155;41.890;23.446;2023-11-21T13:59:02;6.88;;;4.47;;
39454;SDS011;25155;41.890;23.446;2023-11-21T14:01:40;7.00;;;4.38;;
39454;SDS011;25155;41.890;23.446;2023-11-21T14:04:20;6.40;;;4.07;;
39454;SDS011;25155;41.890;23.446;2023-11-21T14:07:01;7.57;;;4.93;;
39454;SDS011;25155;41.890;23.446;2023-11-21T14:09:45;9.93;;;6.60;;
39454;SDS011;25155;41.890;23.446;2023-11-21T14:12:14;9.80;;;6.87;;
39454;SDS011;25155;41.890;23.446;2023-11-21T14:14:42;9.90;;;6.47;;
39454;SDS011;25155;41.890;23.446;2023-11-21T14:17:10;8.57;;;5.40;;
39454;SDS011;25155;41.890;23.446;2023-11-21T14:19:37;7.60;;;4.90;;
39454;SDS011;25155;41.890;23.446;2023-11-21T14:22:08;7.22;;;4.50;;
39454;SDS011;25155;41.890;23.446;2023-11-21T14:24:36;6.47;;;4.22;;
39454;SDS011;25155;41.890;23.446;2023-11-21T14:27:11;6.63;;;4.28;;
39454;SDS011;25155;41.890;23.446;2023-11-21T14:29:40;7.32;;;4.53;;
39454;SDS011;25155;41.890;23.446;2023-11-21T14:32:10;6.10;;;3.85;;
39454;SDS011;25155;41.890;23.446;2023-11-21T14:34:37;6.53;;;4.75;;
39454;SDS011;25155;41.890;23.446;2023-11-21T14:37:06;8.60;;;5.93;;
39454;SDS011;25155;41.890;23.446;2023-11-21T14:39:33;10.45;;;7.30;;
39454;SDS011;25155;41.890;23.446;2023-11-21T14:42:06;9.15;;;5.75;;